createdAt,value
2022-07-30T00:02:13.051Z,20.60
2022-07-30T00:04:41.041Z,20.60
2022-07-30T00:07:09.045Z,20.60
2022-07-30T00:09:36.989Z,20.60
2022-07-30T00:12:05.511Z,20.50
2022-07-30T00:14:34.874Z,20.50
2022-07-30T00:17:05.515Z,20.50
2022-07-30T00:19:33.783Z,20.50
2022-07-30T00:22:01.747Z,20.50
2022-07-30T00:24:29.927Z,20.50
2022-07-30T00:26:58.080Z,20.40
2022-07-30T00:29:26.633Z,20.40
2022-07-30T00:31:54.899Z,20.40
2022-07-30T00:34:26.655Z,20.30
2022-07-30T00:36:54.661Z,20.30
2022-07-30T00:39:22.597Z,20.20
2022-07-30T00:41:58.550Z,20.20
2022-07-30T00:44:27.013Z,20.20
2022-07-30T00:46:55.428Z,20.10
2022-07-30T00:49:24.917Z,20.00
2022-07-30T00:51:53.435Z,20.00
2022-07-30T00:54:22.237Z,19.90
2022-07-30T00:56:50.648Z,19.80
2022-07-30T00:59:18.631Z,19.80
2022-07-30T01:01:46.677Z,19.70
2022-07-30T01:04:14.657Z,19.70
2022-07-30T01:06:43.945Z,19.70
2022-07-30T01:09:11.981Z,19.60
2022-07-30T01:11:41.488Z,19.60
2022-07-30T01:14:11.298Z,19.60
2022-07-30T01:16:42.836Z,19.60
2022-07-30T01:19:43.768Z,19.50
2022-07-30T01:22:21.864Z,19.50
2022-07-30T01:24:57.784Z,19.50
2022-07-30T01:27:29.851Z,19.50
2022-07-30T01:29:59.583Z,19.50
2022-07-30T01:32:28.367Z,19.40
2022-07-30T01:34:59.370Z,19.40
2022-07-30T01:37:29.025Z,19.40
2022-07-30T01:39:57.641Z,19.40
2022-07-30T01:42:29.832Z,19.40
2022-07-30T01:44:59.690Z,19.40
2022-07-30T01:47:30.357Z,19.40
2022-07-30T01:50:00.200Z,19.40
2022-07-30T01:52:31.047Z,19.40
2022-07-30T01:55:01.763Z,19.40
2022-07-30T01:57:32.931Z,19.40
2022-07-30T02:00:08.169Z,19.40
2022-07-30T02:02:37.008Z,19.30
2022-07-30T02:05:05.989Z,19.30
2022-07-30T02:07:38.894Z,19.30
2022-07-30T02:10:12.546Z,19.30
2022-07-30T02:12:47.308Z,19.30
2022-07-30T02:15:22.287Z,19.30
2022-07-30T02:17:57.449Z,19.30
2022-07-30T02:20:29.282Z,19.30
2022-07-30T02:23:03.523Z,19.30
2022-07-30T02:25:34.882Z,19.30
2022-07-30T02:28:09.344Z,19.20
2022-07-30T02:30:40.755Z,19.20
2022-07-30T02:33:12.722Z,19.20
2022-07-30T02:35:42.239Z,19.20
2022-07-30T02:38:13.126Z,19.20
2022-07-30T02:40:42.977Z,19.10
2022-07-30T02:43:15.263Z,19.10
2022-07-30T02:45:45.513Z,19.20
2022-07-30T02:48:35.123Z,19.10
2022-07-30T02:51:05.412Z,19.10
2022-07-30T02:53:34.036Z,19.10
2022-07-30T02:56:03.103Z,19.10
2022-07-30T02:58:33.642Z,19.10
2022-07-30T03:01:03.529Z,19.00
2022-07-30T03:03:33.041Z,19.00
2022-07-30T03:06:02.630Z,19.00
2022-07-30T03:08:32.585Z,18.90
2022-07-30T03:11:01.602Z,18.90
2022-07-30T03:13:29.827Z,18.90
2022-07-30T03:16:02.111Z,18.80
2022-07-30T03:18:36.098Z,18.80
2022-07-30T03:21:05.689Z,18.70
2022-07-30T03:23:37.052Z,18.70
2022-07-30T03:26:08.562Z,18.70
2022-07-30T03:28:40.095Z,18.70
2022-07-30T03:31:10.611Z,18.60
2022-07-30T03:33:40.823Z,18.60
2022-07-30T03:36:10.151Z,18.60
2022-07-30T03:38:38.802Z,18.50
2022-07-30T03:41:08.876Z,18.50
2022-07-30T03:43:41.160Z,18.50
2022-07-30T03:46:11.627Z,18.40
2022-07-30T03:48:40.620Z,18.40
2022-07-30T03:51:10.316Z,18.40
2022-07-30T03:53:38.799Z,18.40
2022-07-30T03:56:07.996Z,18.40
2022-07-30T03:58:38.056Z,18.40
2022-07-30T04:01:06.156Z,18.30
2022-07-30T04:03:35.788Z,18.30
2022-07-30T04:06:03.780Z,18.30
2022-07-30T04:08:31.797Z,18.30
2022-07-30T04:10:59.828Z,18.30
2022-07-30T04:13:27.726Z,18.30
2022-07-30T04:16:37.179Z,18.30
2022-07-30T04:18:55.785Z,18.30
2022-07-30T04:21:26.838Z,18.30
2022-07-30T04:24:03.959Z,18.40
2022-07-30T04:26:34.813Z,18.40
2022-07-30T04:29:04.017Z,18.40
2022-07-30T04:31:39.994Z,18.40
2022-07-30T04:34:14.883Z,18.40
2022-07-30T04:36:43.915Z,18.30
2022-07-30T04:39:12.133Z,18.30
2022-07-30T04:41:48.997Z,18.20
2022-07-30T04:44:19.561Z,18.10
2022-07-30T04:46:47.812Z,18.00
2022-07-30T04:49:18.819Z,17.90
2022-07-30T04:51:47.859Z,17.90
2022-07-30T04:54:17.046Z,17.90
2022-07-30T04:56:53.655Z,17.90
2022-07-30T04:59:25.140Z,17.90
2022-07-30T05:01:54.504Z,17.90
2022-07-30T05:04:24.923Z,17.90
2022-07-30T05:06:54.008Z,18.00
2022-07-30T05:09:22.416Z,18.10
2022-07-30T05:11:53.722Z,18.10
2022-07-30T05:14:22.392Z,18.10
2022-07-30T05:16:50.436Z,18.20
2022-07-30T05:19:21.277Z,18.20
2022-07-30T05:21:50.669Z,18.30
2022-07-30T05:24:19.119Z,18.40
2022-07-30T05:26:47.460Z,18.40
2022-07-30T05:29:19.637Z,18.50
2022-07-30T05:31:48.860Z,18.50
2022-07-30T05:34:17.130Z,18.60
2022-07-30T05:36:46.150Z,18.60
2022-07-30T05:39:16.342Z,18.80
2022-07-30T05:41:44.521Z,18.80
2022-07-30T05:44:19.596Z,18.90
2022-07-30T05:46:50.094Z,19.00
2022-07-30T05:49:18.153Z,19.10
2022-07-30T05:51:46.973Z,19.20
2022-07-30T05:54:16.325Z,19.30
2022-07-30T05:56:44.238Z,19.30
2022-07-30T05:59:12.164Z,19.50
2022-07-30T06:01:40.174Z,19.50
2022-07-30T06:04:08.252Z,19.50
2022-07-30T06:06:36.182Z,19.60
2022-07-30T06:09:04.203Z,19.70
2022-07-30T06:11:33.484Z,19.80
2022-07-30T06:14:01.422Z,19.90
2022-07-30T06:16:29.411Z,20.00
2022-07-30T06:18:57.313Z,20.00
2022-07-30T06:21:25.285Z,20.10
2022-07-30T06:23:53.274Z,20.20
2022-07-30T06:26:28.283Z,20.30
2022-07-30T06:28:57.827Z,20.40
2022-07-30T06:31:25.913Z,20.50
2022-07-30T06:33:54.038Z,20.50
2022-07-30T06:36:22.422Z,20.60
2022-07-30T06:38:50.389Z,20.70
2022-07-30T06:41:18.381Z,20.70
2022-07-30T06:43:46.385Z,20.80
2022-07-30T06:46:15.738Z,20.80
2022-07-30T06:48:43.782Z,20.90
2022-07-30T06:51:11.825Z,21.00
2022-07-30T06:53:42.709Z,21.20
2022-07-30T06:56:11.033Z,21.30
2022-07-30T06:58:39.159Z,21.40
2022-07-30T07:01:11.300Z,21.60
2022-07-30T07:03:41.174Z,21.90
2022-07-30T07:06:09.824Z,21.90
2022-07-30T07:08:38.289Z,22.00
2022-07-30T07:11:06.552Z,22.10
2022-07-30T07:13:34.559Z,22.10
2022-07-30T07:16:02.760Z,22.10
2022-07-30T07:18:30.841Z,22.10
2022-07-30T07:21:00.138Z,22.10
2022-07-30T07:23:39.809Z,22.20
2022-07-30T07:26:11.706Z,22.30
2022-07-30T07:28:41.051Z,22.40
2022-07-30T07:31:09.598Z,22.40
2022-07-30T07:33:38.235Z,22.50
2022-07-30T07:36:07.990Z,22.50
2022-07-30T07:38:36.581Z,22.60
2022-07-30T07:41:05.354Z,22.70
2022-07-30T07:43:33.342Z,22.90
2022-07-30T07:46:01.395Z,23.00
2022-07-30T07:48:29.418Z,23.10
2022-07-30T07:51:00.343Z,23.20
2022-07-30T07:53:30.082Z,23.30
2022-07-30T07:56:00.581Z,23.50
2022-07-30T07:58:29.495Z,23.50
2022-07-30T08:00:59.126Z,23.60
2022-07-30T08:03:27.077Z,23.70
2022-07-30T08:06:06.026Z,23.70
2022-07-30T08:08:37.505Z,23.70
2022-07-30T08:11:07.031Z,23.80
2022-07-30T08:13:49.335Z,23.90
2022-07-30T08:16:21.334Z,24.10
2022-07-30T08:18:49.325Z,24.20
2022-07-30T08:21:17.307Z,24.50
2022-07-30T08:23:46.585Z,24.70
2022-07-30T08:26:14.535Z,25.00
2022-07-30T08:28:43.090Z,25.30
2022-07-30T08:31:11.079Z,25.60
2022-07-30T08:33:39.009Z,26.00
2022-07-30T08:36:09.469Z,26.40
2022-07-30T08:38:38.321Z,27.00
2022-07-30T08:41:07.943Z,27.50
2022-07-30T08:43:37.497Z,27.70
2022-07-30T08:46:08.782Z,27.80
2022-07-30T08:48:37.192Z,27.80
2022-07-30T08:51:07.007Z,27.70
2022-07-30T08:53:35.530Z,27.40
2022-07-30T08:56:04.038Z,27.00
2022-07-30T08:58:35.312Z,26.70
2022-07-30T09:01:04.842Z,26.60
2022-07-30T09:03:33.659Z,26.40
2022-07-30T09:06:02.886Z,26.70
2022-07-30T09:08:30.861Z,27.20
2022-07-30T09:10:59.271Z,27.90
2022-07-30T09:13:29.293Z,28.50
2022-07-30T09:15:58.885Z,29.20
2022-07-30T09:18:32.673Z,29.30
2022-07-30T09:21:02.404Z,29.20
2022-07-30T09:23:30.490Z,28.80
2022-07-30T09:26:00.855Z,28.50
2022-07-30T09:28:31.368Z,28.20
2022-07-30T09:31:01.753Z,27.90
2022-07-30T09:33:35.716Z,28.00
2022-07-30T09:36:05.803Z,28.40
2022-07-30T09:38:44.473Z,28.80
2022-07-30T09:41:29.363Z,28.90
2022-07-30T09:44:04.611Z,29.20
2022-07-30T09:46:47.073Z,29.70
2022-07-30T09:49:16.692Z,30.30
2022-07-30T09:51:55.639Z,30.60
2022-07-30T09:54:52.129Z,31.00
2022-07-30T09:57:25.995Z,31.40
2022-07-30T09:59:56.663Z,31.70
2022-07-30T10:02:33.010Z,32.10
2022-07-30T10:05:14.499Z,32.30
2022-07-30T10:07:51.318Z,32.70
2022-07-30T10:10:21.826Z,32.50
2022-07-30T10:12:57.894Z,32.20
2022-07-30T10:15:29.020Z,31.80
2022-07-30T10:18:00.510Z,31.40
2022-07-30T10:20:29.301Z,31.50
2022-07-30T10:22:58.157Z,31.40
2022-07-30T10:25:28.534Z,31.30
2022-07-30T10:27:58.052Z,31.40
2022-07-30T10:30:28.281Z,31.40
2022-07-30T10:33:01.396Z,31.50
2022-07-30T10:35:34.315Z,31.80
2022-07-30T10:38:13.641Z,32.00
2022-07-30T10:40:51.365Z,31.90
2022-07-30T10:43:51.823Z,31.90
2022-07-30T10:46:30.234Z,31.80
2022-07-30T10:49:12.524Z,31.30
2022-07-30T10:51:48.880Z,30.50
2022-07-30T10:54:44.667Z,30.40
2022-07-30T10:57:23.120Z,30.40
2022-07-30T11:00:12.010Z,30.40
2022-07-30T11:02:40.200Z,30.50
2022-07-30T11:05:45.246Z,30.40
2022-07-30T11:08:36.130Z,30.40
2022-07-30T11:11:59.241Z,30.30
2022-07-30T11:14:10.980Z,30.10
2022-07-30T11:17:00.006Z,30.10
2022-07-30T11:19:56.354Z,30.20
2022-07-30T11:22:27.136Z,30.40
2022-07-30T11:24:56.477Z,30.40
2022-07-30T11:27:41.989Z,30.30
2022-07-30T11:30:34.872Z,30.40
2022-07-30T11:33:32.110Z,30.40
2022-07-30T11:36:12.805Z,30.60
2022-07-30T11:39:05.402Z,31.20
2022-07-30T11:41:35.314Z,31.70
2022-07-30T11:44:28.933Z,31.60
2022-07-30T11:46:57.295Z,31.10
2022-07-30T11:49:25.417Z,30.90
2022-07-30T11:51:53.602Z,30.70
2022-07-30T11:54:22.902Z,30.50
2022-07-30T11:56:52.663Z,30.50
2022-07-30T11:59:20.686Z,30.60
2022-07-30T12:01:52.773Z,30.60
2022-07-30T12:04:21.143Z,30.70
2022-07-30T12:06:50.033Z,30.70
2022-07-30T12:09:29.206Z,30.60
2022-07-30T12:11:58.297Z,30.70
2022-07-30T12:14:26.450Z,30.60
2022-07-30T12:16:55.971Z,30.60
2022-07-30T12:19:23.983Z,30.50
2022-07-30T12:21:53.529Z,30.60
2022-07-30T12:24:27.325Z,31.00
2022-07-30T12:27:06.454Z,31.60
2022-07-30T12:29:37.601Z,32.00
2022-07-30T12:32:06.466Z,31.90
2022-07-30T12:34:34.443Z,31.90
2022-07-30T12:37:11.481Z,31.70
2022-07-30T12:39:40.858Z,31.30
2022-07-30T12:42:18.656Z,31.30
2022-07-30T12:44:49.285Z,31.50
2022-07-30T12:47:23.881Z,31.80
2022-07-30T12:49:53.316Z,31.80
2022-07-30T12:52:28.712Z,31.70
2022-07-30T12:55:08.709Z,31.30
2022-07-30T12:57:56.362Z,31.10
2022-07-30T13:00:25.945Z,31.30
2022-07-30T13:02:54.582Z,31.50
2022-07-30T13:05:23.044Z,31.80
2022-07-30T13:07:55.416Z,31.90
2022-07-30T13:10:30.473Z,31.80
2022-07-30T13:12:59.389Z,31.70
2022-07-30T13:15:27.472Z,32.00
2022-07-30T13:17:55.403Z,32.20
2022-07-30T13:20:23.899Z,32.60
2022-07-30T13:22:51.857Z,32.80
2022-07-30T13:25:19.784Z,33.00
2022-07-30T13:27:49.378Z,33.50
2022-07-30T13:30:17.304Z,33.60
2022-07-30T13:32:45.211Z,33.60
2022-07-30T13:35:13.196Z,33.60
2022-07-30T13:37:41.101Z,33.70
2022-07-30T13:40:10.275Z,33.50
2022-07-30T13:42:38.176Z,33.70
2022-07-30T13:45:08.701Z,33.80
2022-07-30T13:47:36.872Z,33.70
2022-07-30T13:50:05.442Z,33.60
2022-07-30T13:52:33.747Z,33.60
2022-07-30T13:55:01.763Z,33.70
2022-07-30T13:57:29.713Z,33.60
2022-07-30T13:59:57.674Z,33.60
2022-07-30T14:02:26.957Z,33.40
2022-07-30T14:04:56.146Z,33.30
2022-07-30T14:07:24.255Z,33.00
2022-07-30T14:09:54.544Z,32.80
2022-07-30T14:12:22.702Z,32.70
2022-07-30T14:14:50.686Z,32.80
2022-07-30T14:17:18.647Z,32.80
2022-07-30T14:19:48.126Z,32.70
2022-07-30T14:22:16.070Z,32.50
2022-07-30T14:24:44.016Z,32.40
2022-07-30T14:27:11.942Z,32.30
2022-07-30T14:29:40.031Z,32.10
2022-07-30T14:32:08.156Z,32.00
2022-07-30T14:34:36.088Z,32.10
2022-07-30T14:37:05.727Z,31.90
2022-07-30T14:39:35.498Z,31.80
2022-07-30T14:42:03.550Z,31.60
2022-07-30T14:44:31.495Z,31.70
2022-07-30T14:46:59.571Z,31.60
2022-07-30T14:49:27.874Z,31.50
2022-07-30T14:51:56.168Z,31.50
2022-07-30T14:54:25.539Z,31.30
2022-07-30T14:56:58.035Z,31.50
2022-07-30T14:59:27.354Z,31.50
2022-07-30T15:01:55.617Z,31.40
2022-07-30T15:04:23.902Z,31.30
2022-07-30T15:06:52.048Z,31.20
2022-07-30T15:09:20.713Z,31.10
2022-07-30T15:12:08.304Z,30.80
2022-07-30T15:14:40.038Z,30.70
2022-07-30T15:17:08.231Z,30.60
2022-07-30T15:19:36.290Z,30.40
2022-07-30T15:22:05.414Z,30.30
2022-07-30T15:24:33.859Z,30.20
2022-07-30T15:27:03.172Z,30.40
2022-07-30T15:29:32.014Z,30.60
2022-07-30T15:32:01.562Z,30.70
2022-07-30T15:34:34.034Z,30.80
2022-07-30T15:37:02.543Z,30.90
2022-07-30T15:39:32.758Z,30.80
2022-07-30T15:42:03.045Z,30.70
2022-07-30T15:44:34.106Z,30.60
2022-07-30T15:47:02.453Z,30.70
2022-07-30T15:49:30.619Z,30.70
2022-07-30T15:52:00.119Z,30.70
2022-07-30T15:54:28.406Z,30.60
2022-07-30T15:57:01.267Z,30.50
2022-07-30T15:59:31.764Z,30.40
2022-07-30T16:01:59.904Z,30.40
2022-07-30T16:04:31.615Z,30.30
2022-07-30T16:07:00.589Z,30.30
2022-07-30T16:09:28.730Z,30.20
2022-07-30T16:11:56.910Z,30.20
2022-07-30T16:14:26.589Z,30.20
2022-07-30T16:16:56.181Z,30.10
2022-07-30T16:19:24.187Z,30.00
2022-07-30T16:21:52.722Z,30.00
2022-07-30T16:24:22.398Z,29.90
2022-07-30T16:26:50.698Z,29.90
2022-07-30T16:29:18.960Z,29.90
2022-07-30T16:31:47.688Z,29.80
2022-07-30T16:34:17.356Z,29.80
2022-07-30T16:36:51.290Z,29.80
2022-07-30T16:39:19.192Z,29.80
2022-07-30T16:41:47.091Z,29.80
2022-07-30T16:47:07.085Z,29.80
2022-07-30T16:49:37.815Z,29.70
2022-07-30T16:52:06.355Z,29.60
2022-07-30T16:54:34.390Z,29.40
2022-07-30T16:57:04.011Z,29.40
2022-07-30T16:59:38.791Z,29.30
2022-07-30T17:02:10.319Z,29.30
2022-07-30T17:04:39.721Z,29.10
2022-07-30T17:07:07.883Z,28.90
2022-07-30T17:09:36.854Z,28.80
2022-07-30T17:12:12.273Z,28.80
2022-07-30T17:14:41.432Z,28.70
2022-07-30T17:17:13.729Z,28.60
2022-07-30T17:19:44.001Z,28.50
2022-07-30T17:22:12.414Z,28.50
2022-07-30T17:24:40.409Z,28.50
2022-07-30T17:27:08.359Z,28.50
2022-07-30T17:29:49.938Z,28.50
2022-07-30T17:32:19.319Z,28.50
2022-07-30T17:34:49.476Z,28.50
2022-07-30T17:37:17.390Z,28.60
2022-07-30T17:40:26.657Z,28.50
2022-07-30T17:42:33.357Z,28.50
2022-07-30T17:45:02.167Z,28.40
2022-07-30T17:47:30.095Z,28.30
2022-07-30T17:49:59.385Z,28.30
2022-07-30T17:52:27.432Z,28.20
2022-07-30T17:54:55.604Z,28.10
2022-07-30T17:57:23.905Z,28.10
2022-07-30T17:59:52.082Z,28.00
2022-07-30T18:02:27.698Z,27.90
2022-07-30T18:04:57.070Z,27.90
2022-07-30T18:07:26.502Z,27.80
2022-07-30T18:09:55.011Z,27.60
2022-07-30T18:12:23.310Z,27.60
2022-07-30T18:14:51.534Z,27.40
2022-07-30T18:17:19.531Z,27.30
2022-07-30T18:19:47.507Z,27.20
2022-07-30T18:22:16.470Z,27.00
2022-07-30T18:25:00.554Z,26.90
2022-07-30T18:27:29.764Z,26.80
2022-07-30T18:29:58.118Z,26.70
2022-07-30T18:32:26.135Z,26.60
2022-07-30T18:34:54.178Z,26.50
2022-07-30T18:37:22.090Z,26.50
2022-07-30T18:39:50.100Z,26.40
2022-07-30T18:42:19.663Z,26.30
2022-07-30T18:44:47.760Z,26.20
2022-07-30T18:47:15.937Z,26.20
2022-07-30T18:49:44.094Z,26.10
2022-07-30T18:52:12.347Z,26.00
2022-07-30T18:54:40.250Z,26.00
2022-07-30T18:57:13.894Z,25.90
2022-07-30T18:59:43.870Z,25.80
2022-07-30T19:02:12.047Z,25.70
2022-07-30T19:04:40.007Z,25.60
2022-07-30T19:07:08.252Z,25.60
2022-07-30T19:09:36.283Z,25.50
2022-07-30T19:12:04.956Z,25.40
2022-07-30T19:14:33.339Z,25.30
2022-07-30T19:17:02.590Z,25.30
2022-07-30T19:19:30.589Z,25.10
2022-07-30T19:21:58.922Z,25.00
2022-07-30T19:24:27.676Z,24.90
2022-07-30T19:26:56.094Z,24.90
2022-07-30T19:29:24.205Z,24.80
2022-07-30T19:31:52.103Z,24.70
2022-07-30T19:34:21.391Z,24.70
2022-07-30T19:36:49.624Z,24.60
2022-07-30T19:39:21.507Z,24.70
2022-07-30T19:41:53.023Z,24.60
2022-07-30T19:44:21.038Z,24.50
2022-07-30T19:46:51.581Z,24.50
2022-07-30T19:49:21.849Z,24.40
2022-07-30T19:52:10.832Z,24.40
2022-07-30T19:54:37.985Z,24.30
2022-07-30T19:57:06.033Z,24.30
2022-07-30T19:59:45.452Z,24.20
2022-07-30T20:02:22.562Z,24.10
2022-07-30T20:04:52.061Z,23.90
2022-07-30T20:07:20.028Z,23.80
2022-07-30T20:09:48.607Z,23.70
2022-07-30T20:12:17.273Z,23.60
2022-07-30T20:14:45.272Z,23.50
2022-07-30T20:17:13.378Z,23.40
2022-07-30T20:19:47.592Z,23.30
2022-07-30T20:22:32.285Z,23.20
2022-07-30T20:25:02.474Z,23.20
2022-07-30T20:27:35.712Z,23.10
2022-07-30T20:30:07.706Z,23.10
2022-07-30T20:32:53.612Z,23.10
2022-07-30T20:35:26.062Z,23.10
2022-07-30T20:37:56.409Z,23.00
2022-07-30T20:40:27.933Z,23.00
2022-07-30T20:42:56.246Z,22.90
2022-07-30T20:45:25.237Z,22.80
2022-07-30T20:47:56.599Z,22.70
2022-07-30T20:50:31.016Z,22.60
2022-07-30T20:53:00.913Z,22.60
2022-07-30T20:55:29.133Z,22.60
2022-07-30T20:58:12.502Z,22.70
2022-07-30T21:00:41.767Z,22.70
2022-07-30T21:03:13.749Z,22.70
2022-07-30T21:05:43.000Z,22.70
2022-07-30T21:08:12.782Z,22.70
2022-07-30T21:10:44.725Z,22.80
2022-07-30T21:13:14.020Z,22.70
2022-07-30T21:15:45.654Z,22.70
2022-07-30T21:18:30.664Z,22.70
2022-07-30T21:20:58.973Z,22.80
2022-07-30T21:23:30.112Z,22.80
2022-07-30T21:26:05.863Z,22.80
2022-07-30T21:28:38.654Z,22.80
2022-07-30T21:31:08.247Z,22.80
2022-07-30T21:33:36.975Z,22.70
2022-07-30T21:36:10.741Z,22.70
2022-07-30T21:38:41.843Z,22.70
2022-07-30T21:41:14.151Z,22.70
2022-07-30T21:43:43.656Z,22.70
2022-07-30T21:46:12.091Z,22.60
2022-07-30T21:48:40.064Z,22.60
2022-07-30T21:51:09.485Z,22.60
2022-07-30T21:53:44.768Z,22.60
2022-07-30T21:56:18.557Z,22.60
2022-07-30T21:58:48.584Z,22.60
2022-07-30T22:01:21.684Z,22.50
2022-07-30T22:04:04.092Z,22.50
2022-07-30T22:06:37.745Z,22.50
2022-07-30T22:09:18.845Z,22.50
2022-07-30T22:11:57.333Z,22.50
2022-07-30T22:14:29.936Z,22.50
2022-07-30T22:17:00.425Z,22.40
2022-07-30T22:19:28.365Z,22.40
2022-07-30T22:21:56.327Z,22.40
2022-07-30T22:24:29.264Z,22.40
2022-07-30T22:27:01.139Z,22.40
2022-07-30T22:29:34.178Z,22.40
2022-07-30T22:32:04.115Z,22.40
2022-07-30T22:34:32.747Z,22.40
2022-07-30T22:37:00.705Z,22.40
2022-07-30T22:39:31.803Z,22.40
2022-07-30T22:42:18.304Z,22.40
2022-07-30T22:44:48.174Z,22.50
2022-07-30T22:50:05.117Z,22.50
2022-07-30T22:52:38.199Z,22.40
2022-07-30T22:55:10.164Z,22.40
2022-07-30T22:57:40.415Z,22.40
2022-07-30T23:00:12.858Z,22.40
2022-07-30T23:02:42.935Z,22.40
2022-07-30T23:05:11.902Z,22.40
2022-07-30T23:07:40.722Z,22.40
2022-07-30T23:10:12.315Z,22.40
2022-07-30T23:12:30.469Z,22.50
2022-07-30T23:12:51.656Z,22.30
2022-07-30T23:15:20.757Z,22.30
2022-07-30T23:17:49.277Z,22.30
2022-07-30T23:20:20.230Z,22.20
2022-07-30T23:22:48.451Z,22.20
2022-07-30T23:25:16.856Z,22.20
2022-07-30T23:27:46.638Z,22.20
2022-07-30T23:30:16.291Z,22.10
2022-07-30T23:32:44.362Z,22.10
2022-07-30T23:35:12.334Z,22.10
2022-07-30T23:37:48.895Z,22.10
2022-07-30T23:40:18.258Z,22.10
2022-07-30T23:42:46.465Z,22.10
2022-07-30T23:45:16.133Z,22.10
2022-07-30T23:48:00.616Z,22.10
2022-07-30T23:50:31.574Z,22.10
2022-07-30T23:52:59.576Z,22.00
2022-07-30T23:55:28.005Z,22.00
2022-07-30T23:57:56.647Z,22.00
